createdAt,value
2022-12-31T00:01:13.250Z,13.30
2022-12-31T00:03:40.270Z,13.20
2022-12-31T00:06:14.345Z,13.30
2022-12-31T00:08:41.637Z,13.20
2022-12-31T00:11:09.137Z,13.20
2022-12-31T00:13:36.426Z,13.10
2022-12-31T00:16:12.479Z,13.10
2022-12-31T00:18:39.885Z,13.10
2022-12-31T00:21:07.870Z,13.00
2022-12-31T00:23:35.382Z,13.00
2022-12-31T00:26:06.148Z,12.90
2022-12-31T00:28:33.431Z,12.90
2022-12-31T00:31:07.421Z,12.90
2022-12-31T00:33:34.288Z,12.90
2022-12-31T00:36:20.672Z,12.90
2022-12-31T00:38:48.859Z,12.90
2022-12-31T00:41:16.329Z,13.00
2022-12-31T00:43:43.496Z,13.00
2022-12-31T00:46:10.869Z,13.10
2022-12-31T00:48:38.114Z,13.10
2022-12-31T00:51:06.307Z,13.10
2022-12-31T00:53:33.380Z,13.30
2022-12-31T00:56:04.575Z,13.40
2022-12-31T00:58:31.736Z,13.40
2022-12-31T01:00:58.726Z,13.50
2022-12-31T01:03:25.923Z,13.50
2022-12-31T01:05:52.901Z,13.50
2022-12-31T01:08:19.734Z,13.60
2022-12-31T01:11:08.707Z,13.70
2022-12-31T01:13:35.763Z,13.80
2022-12-31T01:16:12.930Z,13.90
2022-12-31T01:18:40.226Z,14.00
2022-12-31T01:21:09.117Z,14.10
2022-12-31T01:23:36.047Z,14.20
2022-12-31T01:26:04.293Z,14.20
2022-12-31T01:28:31.519Z,14.20
2022-12-31T01:30:58.603Z,14.20
2022-12-31T01:33:25.653Z,14.20
2022-12-31T01:35:52.413Z,14.20
2022-12-31T01:38:19.353Z,14.20
2022-12-31T01:40:46.136Z,14.20
2022-12-31T01:43:18.477Z,14.10
2022-12-31T01:45:50.549Z,14.20
2022-12-31T01:48:20.115Z,14.20
2022-12-31T01:50:46.991Z,14.30
2022-12-31T01:53:14.536Z,14.40
2022-12-31T01:55:55.872Z,14.40
2022-12-31T01:58:27.752Z,14.30
2022-12-31T02:00:55.068Z,14.30
2022-12-31T02:03:23.056Z,14.20
2022-12-31T02:05:53.403Z,14.20
2022-12-31T02:08:20.739Z,14.00
2022-12-31T02:10:47.715Z,14.00
2022-12-31T02:13:15.010Z,14.10
2022-12-31T02:16:04.276Z,14.10
2022-12-31T02:18:39.098Z,14.10
2022-12-31T02:21:16.302Z,14.00
2022-12-31T02:23:46.159Z,14.10
2022-12-31T02:26:16.022Z,14.10
2022-12-31T02:29:01.368Z,14.20
2022-12-31T02:31:39.514Z,14.20
2022-12-31T02:34:07.758Z,14.10
2022-12-31T02:36:36.799Z,14.20
2022-12-31T02:39:06.105Z,14.10
2022-12-31T02:41:51.593Z,14.10
2022-12-31T02:44:26.337Z,14.20
2022-12-31T02:46:57.265Z,14.40
2022-12-31T02:49:27.787Z,14.50
2022-12-31T02:51:59.255Z,14.60
2022-12-31T02:54:36.385Z,14.70
2022-12-31T02:57:18.466Z,14.80
2022-12-31T03:00:13.227Z,14.80
2022-12-31T03:02:41.936Z,14.80
2022-12-31T03:05:09.783Z,14.80
2022-12-31T03:07:36.773Z,14.80
2022-12-31T03:10:03.663Z,14.70
2022-12-31T03:12:47.290Z,14.70
2022-12-31T03:15:22.288Z,14.70
2022-12-31T03:17:52.045Z,14.70
2022-12-31T03:20:37.811Z,14.70
2022-12-31T03:23:07.073Z,14.70
2022-12-31T03:25:37.982Z,14.70
2022-12-31T03:28:06.373Z,14.70
2022-12-31T03:30:33.802Z,14.70
2022-12-31T03:33:01.066Z,14.60
2022-12-31T03:35:28.691Z,14.60
2022-12-31T03:37:56.494Z,14.40
2022-12-31T03:40:24.133Z,14.40
2022-12-31T03:42:51.072Z,14.50
2022-12-31T03:45:18.326Z,14.50
2022-12-31T03:47:45.499Z,14.50
2022-12-31T03:50:13.543Z,14.40
2022-12-31T03:52:40.422Z,14.40
2022-12-31T03:55:08.125Z,14.40
2022-12-31T03:57:35.084Z,14.40
2022-12-31T04:00:02.186Z,14.40
2022-12-31T04:02:31.532Z,14.40
2022-12-31T04:04:58.437Z,14.50
2022-12-31T04:07:25.372Z,14.50
2022-12-31T04:09:52.159Z,14.50
2022-12-31T04:12:18.954Z,14.40
2022-12-31T04:14:45.805Z,14.50
2022-12-31T04:17:12.771Z,14.60
2022-12-31T04:19:39.646Z,14.70
2022-12-31T04:22:06.684Z,14.70
2022-12-31T04:24:33.527Z,14.80
2022-12-31T04:27:06.992Z,14.90
2022-12-31T04:29:34.797Z,14.90
2022-12-31T04:32:01.863Z,15.00
2022-12-31T04:34:28.759Z,15.00
2022-12-31T04:36:55.585Z,15.10
2022-12-31T04:39:22.552Z,15.20
2022-12-31T04:41:49.963Z,15.20
2022-12-31T04:44:17.324Z,15.30
2022-12-31T04:46:44.279Z,15.40
2022-12-31T04:49:11.418Z,15.50
2022-12-31T04:51:38.289Z,15.40
2022-12-31T04:54:05.158Z,15.40
2022-12-31T04:56:32.471Z,15.40
2022-12-31T04:58:59.263Z,15.40
2022-12-31T05:01:26.871Z,15.50
2022-12-31T05:03:53.808Z,15.50
2022-12-31T05:06:22.009Z,15.50
2022-12-31T05:08:49.715Z,15.50
2022-12-31T05:11:16.956Z,15.40
2022-12-31T05:13:44.072Z,15.30
2022-12-31T05:16:11.004Z,15.30
2022-12-31T05:18:37.944Z,15.20
2022-12-31T05:21:05.289Z,15.30
2022-12-31T05:23:32.159Z,15.20
2022-12-31T05:25:59.749Z,15.20
2022-12-31T05:28:26.684Z,15.30
2022-12-31T05:30:53.728Z,15.30
2022-12-31T05:33:21.272Z,15.40
2022-12-31T05:35:48.109Z,15.40
2022-12-31T05:38:15.017Z,15.50
2022-12-31T05:40:41.874Z,15.50
2022-12-31T05:43:08.855Z,15.50
2022-12-31T05:45:35.687Z,15.50
2022-12-31T05:48:02.577Z,15.60
2022-12-31T05:50:29.496Z,15.60
2022-12-31T05:52:56.519Z,15.60
2022-12-31T05:55:23.739Z,15.60
2022-12-31T05:57:50.602Z,15.60
2022-12-31T06:00:17.551Z,15.60
2022-12-31T06:02:45.394Z,15.70
2022-12-31T06:05:12.673Z,15.70
2022-12-31T06:07:39.546Z,15.60
2022-12-31T06:10:06.653Z,15.60
2022-12-31T06:12:33.670Z,15.70
2022-12-31T06:15:00.570Z,15.70
2022-12-31T06:17:32.010Z,15.70
2022-12-31T06:19:59.589Z,15.80
2022-12-31T06:22:26.457Z,15.80
2022-12-31T06:24:53.297Z,15.80
2022-12-31T06:27:20.105Z,15.90
2022-12-31T06:29:48.195Z,15.90
2022-12-31T06:32:15.863Z,15.80
2022-12-31T06:34:42.726Z,15.80
2022-12-31T06:37:09.969Z,15.70
2022-12-31T06:39:36.778Z,15.60
2022-12-31T06:42:03.633Z,15.40
2022-12-31T06:44:30.499Z,15.40
2022-12-31T06:46:57.340Z,15.50
2022-12-31T06:49:24.175Z,15.40
2022-12-31T06:51:51.098Z,15.40
2022-12-31T06:54:19.224Z,15.40
2022-12-31T06:56:46.179Z,15.40
2022-12-31T06:59:17.805Z,15.30
2022-12-31T07:02:05.025Z,15.30
2022-12-31T07:04:40.982Z,15.20
2022-12-31T07:07:12.735Z,15.10
2022-12-31T07:09:42.349Z,15.00
2022-12-31T07:12:26.427Z,15.00
2022-12-31T07:14:56.911Z,15.00
2022-12-31T07:17:29.810Z,15.10
2022-12-31T07:19:59.580Z,15.00
2022-12-31T07:22:26.623Z,15.00
2022-12-31T07:24:53.805Z,15.00
2022-12-31T07:27:20.559Z,15.10
2022-12-31T07:29:53.237Z,15.10
2022-12-31T07:32:20.157Z,15.20
2022-12-31T07:34:49.758Z,15.20
2022-12-31T07:37:30.639Z,15.20
2022-12-31T07:40:16.289Z,15.20
2022-12-31T07:42:43.121Z,15.30
2022-12-31T07:45:28.719Z,15.40
2022-12-31T07:48:02.122Z,15.50
2022-12-31T07:50:29.679Z,15.40
2022-12-31T07:52:56.756Z,15.40
2022-12-31T07:55:23.625Z,15.40
2022-12-31T07:58:03.856Z,15.60
2022-12-31T08:00:31.168Z,15.60
2022-12-31T08:03:10.493Z,15.60
2022-12-31T08:05:52.360Z,15.70
2022-12-31T08:08:28.242Z,15.70
2022-12-31T08:11:07.733Z,15.80
2022-12-31T08:13:34.744Z,15.80
2022-12-31T08:16:02.278Z,15.90
2022-12-31T08:18:29.255Z,15.80
2022-12-31T08:21:05.417Z,15.90
2022-12-31T08:23:36.392Z,15.90
2022-12-31T08:26:03.289Z,15.90
2022-12-31T08:28:35.871Z,15.90
2022-12-31T08:31:07.827Z,15.90
2022-12-31T08:33:39.056Z,15.90
2022-12-31T08:36:21.409Z,16.10
2022-12-31T08:38:54.515Z,16.10
2022-12-31T08:41:21.380Z,16.10
2022-12-31T08:43:56.747Z,16.30
2022-12-31T08:46:29.767Z,16.30
2022-12-31T08:48:56.932Z,16.30
2022-12-31T08:51:25.689Z,16.30
2022-12-31T08:53:53.448Z,16.30
2022-12-31T08:56:31.883Z,16.40
2022-12-31T08:59:17.465Z,16.30
2022-12-31T09:01:50.389Z,16.50
2022-12-31T09:04:24.461Z,16.60
2022-12-31T09:06:52.237Z,16.60
2022-12-31T09:09:19.016Z,16.60
2022-12-31T09:11:45.906Z,16.50
2022-12-31T09:14:31.453Z,16.50
2022-12-31T09:17:18.505Z,16.50
2022-12-31T09:19:45.498Z,16.60
2022-12-31T09:22:12.418Z,16.40
2022-12-31T09:24:39.383Z,16.50
2022-12-31T09:27:13.057Z,16.50
2022-12-31T09:29:56.724Z,16.50
2022-12-31T09:32:32.736Z,16.50
2022-12-31T09:35:04.160Z,16.80
2022-12-31T09:37:37.482Z,17.00
2022-12-31T09:40:21.572Z,17.30
2022-12-31T09:43:07.090Z,17.30
2022-12-31T09:45:48.998Z,17.50
2022-12-31T09:48:15.879Z,17.70
2022-12-31T09:51:01.595Z,17.70
2022-12-31T09:53:34.499Z,17.50
2022-12-31T09:56:10.322Z,17.40
2022-12-31T09:58:45.412Z,17.20
2022-12-31T10:01:12.532Z,17.40
2022-12-31T10:03:39.438Z,17.60
2022-12-31T10:06:25.274Z,17.50
2022-12-31T10:09:12.425Z,17.80
2022-12-31T10:12:02.160Z,18.10
2022-12-31T10:14:47.814Z,18.10
2022-12-31T10:17:17.520Z,18.00
2022-12-31T10:19:44.287Z,18.20
2022-12-31T10:22:17.453Z,18.80
2022-12-31T10:24:44.271Z,20.40
2022-12-31T10:27:14.557Z,21.50
2022-12-31T10:29:41.363Z,22.10
2022-12-31T10:32:14.186Z,21.20
2022-12-31T10:34:51.852Z,21.10
2022-12-31T10:37:29.086Z,21.40
2022-12-31T10:39:55.934Z,20.80
2022-12-31T10:42:22.713Z,20.60
2022-12-31T10:44:59.172Z,21.50
2022-12-31T10:47:31.946Z,21.40
2022-12-31T10:50:01.837Z,21.70
2022-12-31T10:52:49.601Z,22.10
2022-12-31T10:55:35.281Z,23.00
2022-12-31T10:58:20.598Z,23.30
2022-12-31T11:00:53.295Z,23.30
2022-12-31T11:03:31.887Z,22.80
2022-12-31T11:05:58.721Z,22.00
2022-12-31T11:08:44.280Z,21.10
2022-12-31T11:11:49.571Z,21.60
2022-12-31T11:14:22.221Z,21.60
2022-12-31T11:16:57.709Z,22.00
2022-12-31T11:19:33.385Z,22.10
2022-12-31T11:22:00.179Z,22.30
2022-12-31T11:24:45.438Z,21.80
2022-12-31T11:27:42.705Z,20.90
2022-12-31T11:30:11.689Z,20.30
2022-12-31T11:32:54.712Z,20.70
2022-12-31T11:35:30.621Z,20.80
2022-12-31T11:38:09.539Z,21.90
2022-12-31T11:40:54.586Z,22.20
2022-12-31T11:43:27.506Z,22.40
2022-12-31T11:46:09.802Z,22.60
2022-12-31T11:48:41.461Z,22.20
2022-12-31T11:51:14.418Z,21.70
2022-12-31T11:54:01.274Z,21.60
2022-12-31T11:56:33.718Z,21.40
2022-12-31T11:59:06.197Z,21.00
2022-12-31T12:01:51.576Z,21.10
2022-12-31T12:04:18.477Z,21.00
2022-12-31T12:06:46.070Z,20.60
2022-12-31T12:09:30.209Z,20.70
2022-12-31T12:12:04.897Z,20.60
2022-12-31T12:14:35.442Z,20.70
2022-12-31T12:17:05.481Z,20.80
2022-12-31T12:19:33.845Z,20.80
2022-12-31T12:22:09.162Z,20.70
2022-12-31T12:24:36.206Z,20.70
2022-12-31T12:27:03.181Z,20.30
2022-12-31T12:29:32.008Z,20.20
2022-12-31T12:32:00.689Z,20.20
2022-12-31T12:34:31.928Z,20.20
2022-12-31T12:36:59.231Z,20.30
2022-12-31T12:39:31.076Z,20.40
2022-12-31T12:42:03.576Z,20.40
2022-12-31T12:44:30.932Z,20.50
2022-12-31T12:46:58.797Z,20.30
2022-12-31T12:49:25.675Z,20.10
2022-12-31T12:51:58.444Z,20.00
2022-12-31T12:54:43.675Z,20.10
2022-12-31T12:57:16.628Z,20.10
2022-12-31T13:00:04.699Z,20.20
2022-12-31T13:02:37.846Z,20.00
2022-12-31T13:05:04.807Z,20.00
2022-12-31T13:07:31.689Z,20.00
2022-12-31T13:10:01.556Z,19.90
2022-12-31T13:13:22.267Z,19.80
2022-12-31T13:15:30.663Z,19.70
2022-12-31T13:18:04.415Z,19.80
2022-12-31T13:20:48.152Z,19.80
2022-12-31T13:23:19.865Z,19.70
2022-12-31T13:25:46.686Z,19.80
2022-12-31T13:28:15.281Z,19.90
2022-12-31T13:30:50.204Z,19.60
2022-12-31T13:33:17.021Z,19.60
2022-12-31T13:35:46.848Z,19.70
2022-12-31T13:38:15.720Z,19.70
2022-12-31T13:40:48.554Z,19.60
2022-12-31T13:43:22.333Z,19.60
2022-12-31T13:46:02.835Z,19.40
2022-12-31T13:48:34.222Z,19.40
2022-12-31T13:51:05.233Z,19.40
2022-12-31T13:53:38.502Z,19.40
2022-12-31T13:56:21.964Z,19.40
2022-12-31T13:58:53.221Z,19.20
2022-12-31T14:01:23.121Z,19.20
2022-12-31T14:04:04.038Z,19.20
2022-12-31T14:06:33.583Z,19.10
2022-12-31T14:09:00.659Z,18.90
2022-12-31T14:11:33.285Z,18.90
2022-12-31T14:14:05.867Z,18.80
2022-12-31T14:16:51.243Z,18.80
2022-12-31T14:19:32.459Z,18.70
2022-12-31T14:22:19.963Z,18.60
2022-12-31T14:24:49.797Z,18.50
2022-12-31T14:27:16.655Z,18.40
2022-12-31T14:29:43.384Z,18.30
2022-12-31T14:32:16.130Z,18.20
2022-12-31T14:34:49.900Z,18.10
2022-12-31T14:37:35.523Z,18.00
2022-12-31T14:40:21.099Z,17.90
2022-12-31T14:42:50.975Z,17.70
2022-12-31T14:45:26.913Z,17.40
2022-12-31T14:47:55.881Z,17.20
2022-12-31T14:50:25.178Z,17.00
2022-12-31T14:52:55.990Z,16.80
2022-12-31T14:55:24.517Z,16.60
2022-12-31T15:00:51.999Z,16.30
2022-12-31T15:03:18.879Z,16.10
2022-12-31T15:05:54.272Z,15.80
2022-12-31T15:08:26.583Z,15.80
2022-12-31T15:10:54.010Z,15.40
2022-12-31T15:13:47.220Z,15.20
2022-12-31T15:16:14.076Z,15.10
2022-12-31T15:19:07.250Z,15.10
2022-12-31T15:21:52.728Z,14.70
2022-12-31T15:24:20.995Z,14.40
2022-12-31T15:27:05.180Z,14.40
2022-12-31T15:29:33.632Z,14.10
2022-12-31T15:32:02.679Z,14.00
2022-12-31T15:34:34.978Z,13.90
2022-12-31T15:37:05.741Z,13.60
2022-12-31T15:39:32.717Z,13.30
2022-12-31T15:44:59.360Z,13.00
2022-12-31T15:47:30.521Z,12.80
2022-12-31T15:49:59.663Z,13.10
2022-12-31T15:52:31.263Z,12.80
2022-12-31T15:54:58.622Z,12.90
2022-12-31T15:57:28.435Z,12.80
2022-12-31T15:59:59.364Z,12.70
2022-12-31T16:02:27.351Z,12.50
2022-12-31T16:04:57.271Z,12.40
2022-12-31T16:07:26.453Z,12.30
2022-12-31T16:09:54.085Z,12.20
2022-12-31T16:12:26.474Z,12.30
2022-12-31T16:14:57.846Z,12.10
2022-12-31T16:17:34.866Z,12.00
2022-12-31T16:20:20.012Z,11.90
2022-12-31T16:22:51.144Z,12.00
2022-12-31T16:25:30.799Z,11.90
2022-12-31T16:27:58.785Z,11.80
2022-12-31T16:30:32.636Z,12.00
2022-12-31T16:33:00.819Z,11.80
2022-12-31T16:35:30.372Z,11.80
2022-12-31T16:38:16.697Z,11.70
2022-12-31T16:40:45.739Z,11.70
2022-12-31T16:43:26.024Z,11.60
2022-12-31T16:45:55.066Z,11.60
2022-12-31T16:48:21.928Z,11.50
2022-12-31T16:50:54.301Z,11.50
2022-12-31T16:53:24.920Z,11.40
2022-12-31T16:55:56.355Z,11.40
2022-12-31T16:58:37.375Z,11.30
2022-12-31T17:01:11.581Z,11.20
2022-12-31T17:03:39.189Z,11.20
2022-12-31T17:06:06.178Z,11.20
2022-12-31T17:08:41.150Z,11.10
2022-12-31T17:11:23.838Z,11.10
2022-12-31T17:14:00.659Z,11.00
2022-12-31T17:16:27.840Z,11.20
2022-12-31T17:18:54.843Z,11.00
2022-12-31T17:21:24.228Z,11.00
2022-12-31T17:23:53.672Z,11.10
2022-12-31T17:26:25.348Z,11.00
2022-12-31T17:28:53.562Z,11.00
2022-12-31T17:31:26.660Z,10.90
2022-12-31T17:33:54.404Z,10.90
2022-12-31T17:36:22.733Z,10.80
2022-12-31T17:38:50.233Z,10.80
2022-12-31T17:41:27.244Z,10.70
2022-12-31T17:43:55.076Z,10.80
2022-12-31T17:46:22.569Z,10.80
2022-12-31T17:49:01.332Z,10.70
2022-12-31T17:51:28.230Z,10.70
2022-12-31T17:53:55.067Z,10.60
2022-12-31T17:56:21.972Z,10.60
2022-12-31T17:58:50.619Z,10.60
2022-12-31T18:01:18.764Z,10.50
2022-12-31T18:03:46.069Z,10.50
2022-12-31T18:06:16.621Z,10.40
2022-12-31T18:08:44.021Z,10.60
2022-12-31T18:11:16.202Z,10.40
2022-12-31T18:13:43.155Z,10.30
2022-12-31T18:16:09.988Z,10.30
2022-12-31T18:18:39.980Z,10.20
2022-12-31T18:21:08.043Z,10.10
2022-12-31T18:23:38.972Z,10.10
2022-12-31T18:26:06.197Z,10.10
2022-12-31T18:28:33.097Z,10.10
2022-12-31T18:30:59.969Z,10.00
2022-12-31T18:33:27.207Z,10.40
2022-12-31T18:36:10.434Z,10.40
2022-12-31T18:38:37.592Z,10.30
2022-12-31T18:41:04.643Z,10.50
2022-12-31T18:43:31.683Z,10.50
2022-12-31T18:45:58.906Z,10.40
2022-12-31T18:48:25.805Z,10.30
2022-12-31T18:50:52.669Z,10.40
2022-12-31T18:53:20.984Z,10.50
2022-12-31T18:55:48.012Z,10.40
2022-12-31T18:58:14.912Z,10.40
2022-12-31T19:00:42.095Z,10.50
2022-12-31T19:03:13.881Z,10.80
2022-12-31T19:05:40.811Z,11.00
2022-12-31T19:08:07.743Z,11.40
2022-12-31T19:10:34.998Z,11.40
2022-12-31T19:13:01.897Z,11.40
2022-12-31T19:15:33.427Z,11.50
2022-12-31T19:18:01.359Z,11.50
2022-12-31T19:20:29.262Z,11.60
2022-12-31T19:22:56.796Z,11.50
2022-12-31T19:25:33.902Z,11.60
2022-12-31T19:28:01.379Z,11.60
2022-12-31T19:30:29.747Z,11.50
2022-12-31T19:32:56.654Z,11.30
2022-12-31T19:35:24.299Z,11.20
2022-12-31T19:37:52.067Z,11.10
2022-12-31T19:40:23.329Z,10.80
2022-12-31T19:42:50.722Z,10.70
2022-12-31T19:45:18.544Z,10.60
2022-12-31T19:47:45.693Z,10.50
2022-12-31T19:50:13.932Z,10.30
2022-12-31T19:52:40.987Z,10.30
2022-12-31T19:55:08.212Z,10.30
2022-12-31T19:57:35.145Z,10.10
2022-12-31T20:00:01.946Z,10.00
2022-12-31T20:02:38.712Z,9.90
2022-12-31T20:05:06.189Z,10.00
2022-12-31T20:07:33.228Z,9.90
2022-12-31T20:10:00.151Z,9.90
2022-12-31T20:12:27.869Z,9.90
2022-12-31T20:14:54.829Z,9.80
2022-12-31T20:17:21.808Z,9.70
2022-12-31T20:19:48.760Z,9.80
2022-12-31T20:22:15.650Z,9.70
2022-12-31T20:24:42.557Z,9.90
2022-12-31T20:27:13.582Z,9.80
2022-12-31T20:29:45.435Z,9.70
2022-12-31T20:32:12.285Z,9.60
2022-12-31T20:34:39.244Z,9.60
2022-12-31T20:37:06.180Z,9.50
2022-12-31T20:39:33.014Z,9.60
2022-12-31T20:41:59.887Z,9.60
2022-12-31T20:44:26.794Z,9.50
2022-12-31T20:46:53.725Z,9.60
2022-12-31T20:49:37.185Z,9.40
2022-12-31T20:52:07.581Z,9.30
2022-12-31T20:54:34.445Z,9.20
2022-12-31T20:57:01.380Z,9.20
2022-12-31T20:59:28.199Z,9.10
2022-12-31T21:02:20.644Z,9.00
2022-12-31T21:04:42.050Z,9.00
2022-12-31T21:07:08.972Z,9.10
2022-12-31T21:09:35.851Z,9.10
2022-12-31T21:12:23.051Z,9.00
2022-12-31T21:14:49.951Z,9.00
2022-12-31T21:17:16.699Z,9.00
2022-12-31T21:19:43.531Z,9.00
2022-12-31T21:22:10.374Z,9.00
2022-12-31T21:24:39.086Z,8.90
2022-12-31T21:27:06.340Z,9.00
2022-12-31T21:29:35.508Z,8.90
2022-12-31T21:32:04.068Z,8.90
2022-12-31T21:34:30.888Z,8.80
2022-12-31T21:36:57.771Z,9.10
2022-12-31T21:39:24.557Z,9.00
2022-12-31T21:41:51.419Z,9.10
2022-12-31T21:44:20.839Z,8.90
2022-12-31T21:47:25.210Z,8.90
2022-12-31T21:49:35.463Z,8.70
2022-12-31T21:52:20.599Z,8.60
2022-12-31T21:55:06.288Z,8.60
2022-12-31T21:57:51.978Z,8.50
2022-12-31T22:00:43.057Z,8.50
2022-12-31T22:03:31.855Z,8.50
2022-12-31T22:06:13.541Z,8.50
2022-12-31T22:08:41.599Z,8.40
2022-12-31T22:11:09.027Z,8.40
2022-12-31T22:13:36.280Z,8.50
2022-12-31T22:16:05.770Z,8.40
2022-12-31T22:18:35.104Z,8.50
2022-12-31T22:21:02.976Z,8.50
2022-12-31T22:23:31.004Z,8.40
2022-12-31T22:25:57.902Z,8.40
2022-12-31T22:28:38.079Z,8.40
2022-12-31T22:31:06.867Z,8.30
2022-12-31T22:33:33.787Z,8.30
2022-12-31T22:36:01.815Z,8.30
2022-12-31T22:38:29.471Z,8.20
2022-12-31T22:41:06.717Z,8.20
2022-12-31T22:43:34.221Z,8.20
2022-12-31T22:46:08.553Z,8.30
2022-12-31T22:48:35.820Z,8.30
2022-12-31T22:51:02.683Z,8.60
2022-12-31T22:53:29.476Z,8.50
2022-12-31T22:55:56.562Z,8.60
2022-12-31T22:58:24.312Z,8.90
2022-12-31T23:00:51.827Z,8.70
2022-12-31T23:03:18.795Z,8.90
2022-12-31T23:05:49.044Z,8.70
2022-12-31T23:08:22.696Z,8.50
2022-12-31T23:11:01.140Z,8.50
2022-12-31T23:13:50.969Z,8.60
2022-12-31T23:16:37.307Z,8.50
2022-12-31T23:19:23.268Z,8.50
2022-12-31T23:22:08.674Z,8.70
2022-12-31T23:24:35.699Z,8.80
2022-12-31T23:27:02.973Z,8.70
2022-12-31T23:29:29.879Z,8.90
2022-12-31T23:31:56.733Z,8.70
2022-12-31T23:34:23.794Z,8.70
2022-12-31T23:36:50.756Z,8.60
2022-12-31T23:39:17.649Z,8.70
2022-12-31T23:41:44.723Z,8.50
2022-12-31T23:44:14.653Z,8.60
2022-12-31T23:46:42.358Z,8.50
2022-12-31T23:49:09.278Z,8.50
2022-12-31T23:51:36.695Z,8.30
2022-12-31T23:54:04.364Z,8.70
2022-12-31T23:56:31.262Z,8.50
2022-12-31T23:58:59.003Z,8.50
